sensor_id;sensor_type;location;lat;lon;timestamp;P1;durP1;ratioP1;P2;durP2;ratioP2
74044;SDS011;62389;51.412;5.436;2023-05-07T00:01:18;9.38;;;6.20;;
74044;SDS011;62389;51.412;5.436;2023-05-07T00:03:44;8.90;;;6.50;;
74044;SDS011;62389;51.412;5.436;2023-05-07T00:06:09;8.98;;;5.93;;
74044;SDS011;62389;51.412;5.436;2023-05-07T00:08:37;8.77;;;6.28;;
74044;SDS011;62389;51.412;5.436;2023-05-07T00:11:03;8.27;;;6.40;;
74044;SDS011;62389;51.412;5.436;2023-05-07T00:13:28;7.45;;;6.07;;
74044;SDS011;62389;51.412;5.436;2023-05-07T00:16:00;8.07;;;5.57;;
74044;SDS011;62389;51.412;5.436;2023-05-07T00:18:25;9.43;;;6.22;;
74044;SDS011;62389;51.412;5.436;2023-05-07T00:20:51;9.38;;;6.78;;
74044;SDS011;62389;51.412;5.436;2023-05-07T00:23:16;10.98;;;7.63;;
74044;SDS011;62389;51.412;5.436;2023-05-07T00:25:42;9.60;;;7.30;;
74044;SDS011;62389;51.412;5.436;2023-05-07T00:28:07;10.68;;;6.88;;
74044;SDS011;62389;51.412;5.436;2023-05-07T00:30:32;9.70;;;7.07;;
74044;SDS011;62389;51.412;5.436;2023-05-07T00:32:58;9.40;;;7.07;;
74044;SDS011;62389;51.412;5.436;2023-05-07T00:35:23;11.52;;;7.25;;
74044;SDS011;62389;51.412;5.436;2023-05-07T00:37:48;10.60;;;7.70;;
74044;SDS011;62389;51.412;5.436;2023-05-07T00:40:14;11.00;;;7.13;;
74044;SDS011;62389;51.412;5.436;2023-05-07T00:42:40;10.25;;;8.00;;
74044;SDS011;62389;51.412;5.436;2023-05-07T00:45:05;11.15;;;7.60;;
74044;SDS011;62389;51.412;5.436;2023-05-07T00:47:32;11.00;;;7.85;;
74044;SDS011;62389;51.412;5.436;2023-05-07T00:49:58;10.05;;;7.90;;
74044;SDS011;62389;51.412;5.436;2023-05-07T00:52:23;11.38;;;7.70;;
74044;SDS011;62389;51.412;5.436;2023-05-07T00:54:51;14.15;;;9.05;;
74044;SDS011;62389;51.412;5.436;2023-05-07T00:57:17;11.13;;;8.27;;
74044;SDS011;62389;51.412;5.436;2023-05-07T00:59:42;11.60;;;8.18;;
74044;SDS011;62389;51.412;5.436;2023-05-07T01:02:08;10.88;;;7.82;;
74044;SDS011;62389;51.412;5.436;2023-05-07T01:04:33;11.77;;;7.72;;
74044;SDS011;62389;51.412;5.436;2023-05-07T01:06:59;14.27;;;9.18;;
74044;SDS011;62389;51.412;5.436;2023-05-07T01:09:26;11.77;;;8.70;;
74044;SDS011;62389;51.412;5.436;2023-05-07T01:11:53;11.68;;;8.50;;
74044;SDS011;62389;51.412;5.436;2023-05-07T01:14:20;9.70;;;7.28;;
74044;SDS011;62389;51.412;5.436;2023-05-07T01:16:46;12.63;;;8.80;;
74044;SDS011;62389;51.412;5.436;2023-05-07T01:19:12;12.48;;;9.48;;
74044;SDS011;62389;51.412;5.436;2023-05-07T01:21:41;12.20;;;8.82;;
74044;SDS011;62389;51.412;5.436;2023-05-07T01:24:11;13.63;;;9.07;;
74044;SDS011;62389;51.412;5.436;2023-05-07T01:26:37;12.80;;;8.52;;
74044;SDS011;62389;51.412;5.436;2023-05-07T01:29:04;12.20;;;8.82;;
74044;SDS011;62389;51.412;5.436;2023-05-07T01:31:30;12.73;;;8.85;;
74044;SDS011;62389;51.412;5.436;2023-05-07T01:33:57;13.02;;;9.50;;
74044;SDS011;62389;51.412;5.436;2023-05-07T01:36:26;14.13;;;9.30;;
74044;SDS011;62389;51.412;5.436;2023-05-07T01:38:54;13.40;;;10.02;;
74044;SDS011;62389;51.412;5.436;2023-05-07T01:41:19;14.25;;;9.35;;
74044;SDS011;62389;51.412;5.436;2023-05-07T01:43:46;13.80;;;9.60;;
74044;SDS011;62389;51.412;5.436;2023-05-07T01:46:12;11.77;;;8.48;;
74044;SDS011;62389;51.412;5.436;2023-05-07T01:48:38;12.40;;;8.60;;
74044;SDS011;62389;51.412;5.436;2023-05-07T01:51:04;11.32;;;8.27;;
74044;SDS011;62389;51.412;5.436;2023-05-07T01:53:35;12.20;;;8.75;;
74044;SDS011;62389;51.412;5.436;2023-05-07T01:56:03;13.43;;;8.60;;
74044;SDS011;62389;51.412;5.436;2023-05-07T01:58:29;15.63;;;9.27;;
74044;SDS011;62389;51.412;5.436;2023-05-07T02:00:55;13.30;;;9.23;;
74044;SDS011;62389;51.412;5.436;2023-05-07T02:03:20;13.50;;;9.35;;
74044;SDS011;62389;51.412;5.436;2023-05-07T02:05:46;10.68;;;8.23;;
74044;SDS011;62389;51.412;5.436;2023-05-07T02:08:11;12.52;;;8.88;;
74044;SDS011;62389;51.412;5.436;2023-05-07T02:10:36;13.48;;;9.40;;
74044;SDS011;62389;51.412;5.436;2023-05-07T02:13:02;16.13;;;10.50;;
74044;SDS011;62389;51.412;5.436;2023-05-07T02:15:27;17.38;;;12.13;;
74044;SDS011;62389;51.412;5.436;2023-05-07T02:18:03;14.55;;;10.65;;
74044;SDS011;62389;51.412;5.436;2023-05-07T02:20:30;15.63;;;9.82;;
74044;SDS011;62389;51.412;5.436;2023-05-07T02:22:55;15.73;;;10.18;;
74044;SDS011;62389;51.412;5.436;2023-05-07T02:25:20;17.45;;;12.10;;
74044;SDS011;62389;51.412;5.436;2023-05-07T02:27:46;15.45;;;10.30;;
74044;SDS011;62389;51.412;5.436;2023-05-07T02:30:11;18.30;;;11.60;;
74044;SDS011;62389;51.412;5.436;2023-05-07T02:32:37;17.90;;;12.23;;
74044;SDS011;62389;51.412;5.436;2023-05-07T02:35:02;15.18;;;11.10;;
74044;SDS011;62389;51.412;5.436;2023-05-07T02:37:28;15.32;;;10.43;;
74044;SDS011;62389;51.412;5.436;2023-05-07T02:39:53;16.90;;;11.60;;
74044;SDS011;62389;51.412;5.436;2023-05-07T02:42:18;16.45;;;11.18;;
74044;SDS011;62389;51.412;5.436;2023-05-07T02:44:44;23.33;;;14.32;;
74044;SDS011;62389;51.412;5.436;2023-05-07T02:47:09;15.10;;;11.18;;
74044;SDS011;62389;51.412;5.436;2023-05-07T02:49:35;18.58;;;12.57;;
74044;SDS011;62389;51.412;5.436;2023-05-07T02:52:00;18.60;;;12.65;;
74044;SDS011;62389;51.412;5.436;2023-05-07T02:54:26;18.58;;;13.35;;
74044;SDS011;62389;51.412;5.436;2023-05-07T02:56:51;21.10;;;12.95;;
74044;SDS011;62389;51.412;5.436;2023-05-07T02:59:16;23.05;;;14.77;;
74044;SDS011;62389;51.412;5.436;2023-05-07T03:01:42;18.55;;;13.38;;
74044;SDS011;62389;51.412;5.436;2023-05-07T03:04:09;16.98;;;12.20;;
74044;SDS011;62389;51.412;5.436;2023-05-07T03:06:35;18.02;;;12.10;;
74044;SDS011;62389;51.412;5.436;2023-05-07T03:09:01;20.20;;;13.45;;
74044;SDS011;62389;51.412;5.436;2023-05-07T03:11:26;18.77;;;12.68;;
74044;SDS011;62389;51.412;5.436;2023-05-07T03:13:52;20.50;;;12.70;;
74044;SDS011;62389;51.412;5.436;2023-05-07T03:16:17;19.38;;;12.65;;
74044;SDS011;62389;51.412;5.436;2023-05-07T03:18:42;18.67;;;13.25;;
74044;SDS011;62389;51.412;5.436;2023-05-07T03:21:08;18.50;;;12.70;;
74044;SDS011;62389;51.412;5.436;2023-05-07T03:23:33;22.42;;;14.77;;
74044;SDS011;62389;51.412;5.436;2023-05-07T03:25:59;17.65;;;12.52;;
74044;SDS011;62389;51.412;5.436;2023-05-07T03:28:24;19.05;;;13.52;;
74044;SDS011;62389;51.412;5.436;2023-05-07T03:30:49;20.50;;;13.93;;
74044;SDS011;62389;51.412;5.436;2023-05-07T03:33:15;21.48;;;15.02;;
74044;SDS011;62389;51.412;5.436;2023-05-07T03:35:41;21.02;;;14.27;;
74044;SDS011;62389;51.412;5.436;2023-05-07T03:38:06;20.55;;;14.13;;
74044;SDS011;62389;51.412;5.436;2023-05-07T03:40:32;20.17;;;13.75;;
74044;SDS011;62389;51.412;5.436;2023-05-07T03:42:57;22.30;;;13.68;;
74044;SDS011;62389;51.412;5.436;2023-05-07T03:45:22;24.45;;;14.43;;
74044;SDS011;62389;51.412;5.436;2023-05-07T03:47:48;20.35;;;14.02;;
74044;SDS011;62389;51.412;5.436;2023-05-07T03:50:13;19.95;;;13.98;;
74044;SDS011;62389;51.412;5.436;2023-05-07T03:52:38;22.15;;;13.80;;
74044;SDS011;62389;51.412;5.436;2023-05-07T03:55:04;20.63;;;14.13;;
74044;SDS011;62389;51.412;5.436;2023-05-07T03:57:31;21.40;;;14.65;;
74044;SDS011;62389;51.412;5.436;2023-05-07T03:59:56;23.17;;;15.38;;
74044;SDS011;62389;51.412;5.436;2023-05-07T04:02:21;21.75;;;14.05;;
74044;SDS011;62389;51.412;5.436;2023-05-07T04:04:48;20.98;;;14.52;;
74044;SDS011;62389;51.412;5.436;2023-05-07T04:07:14;22.10;;;14.52;;
74044;SDS011;62389;51.412;5.436;2023-05-07T04:09:40;23.05;;;15.05;;
74044;SDS011;62389;51.412;5.436;2023-05-07T04:12:05;22.27;;;15.60;;
74044;SDS011;62389;51.412;5.436;2023-05-07T04:14:31;24.88;;;14.75;;
74044;SDS011;62389;51.412;5.436;2023-05-07T04:16:57;21.33;;;14.35;;
74044;SDS011;62389;51.412;5.436;2023-05-07T04:19:25;23.55;;;15.63;;
74044;SDS011;62389;51.412;5.436;2023-05-07T04:21:50;24.85;;;16.58;;
74044;SDS011;62389;51.412;5.436;2023-05-07T04:24:16;20.15;;;14.35;;
74044;SDS011;62389;51.412;5.436;2023-05-07T04:26:41;21.98;;;14.75;;
74044;SDS011;62389;51.412;5.436;2023-05-07T04:29:07;23.55;;;15.32;;
74044;SDS011;62389;51.412;5.436;2023-05-07T04:31:32;21.05;;;13.95;;
74044;SDS011;62389;51.412;5.436;2023-05-07T04:33:58;19.17;;;13.18;;
74044;SDS011;62389;51.412;5.436;2023-05-07T04:36:23;25.25;;;16.17;;
74044;SDS011;62389;51.412;5.436;2023-05-07T04:38:52;23.90;;;14.52;;
74044;SDS011;62389;51.412;5.436;2023-05-07T04:41:18;24.80;;;16.55;;
74044;SDS011;62389;51.412;5.436;2023-05-07T04:43:43;23.98;;;15.40;;
74044;SDS011;62389;51.412;5.436;2023-05-07T04:46:08;25.35;;;16.13;;
74044;SDS011;62389;51.412;5.436;2023-05-07T04:48:34;25.02;;;15.98;;
74044;SDS011;62389;51.412;5.436;2023-05-07T04:50:59;29.85;;;17.33;;
74044;SDS011;62389;51.412;5.436;2023-05-07T04:53:25;24.73;;;16.23;;
74044;SDS011;62389;51.412;5.436;2023-05-07T04:55:54;26.50;;;17.00;;
74044;SDS011;62389;51.412;5.436;2023-05-07T04:58:21;24.85;;;15.88;;
74044;SDS011;62389;51.412;5.436;2023-05-07T05:00:47;25.10;;;16.23;;
74044;SDS011;62389;51.412;5.436;2023-05-07T05:03:12;26.38;;;16.30;;
74044;SDS011;62389;51.412;5.436;2023-05-07T05:05:38;23.95;;;16.85;;
74044;SDS011;62389;51.412;5.436;2023-05-07T05:08:03;27.85;;;17.73;;
74044;SDS011;62389;51.412;5.436;2023-05-07T05:10:28;25.08;;;16.38;;
74044;SDS011;62389;51.412;5.436;2023-05-07T05:12:54;27.00;;;17.42;;
74044;SDS011;62389;51.412;5.436;2023-05-07T05:15:19;25.92;;;17.42;;
74044;SDS011;62389;51.412;5.436;2023-05-07T05:17:45;26.88;;;17.08;;
74044;SDS011;62389;51.412;5.436;2023-05-07T05:20:10;25.23;;;16.95;;
74044;SDS011;62389;51.412;5.436;2023-05-07T05:22:36;28.35;;;17.35;;
74044;SDS011;62389;51.412;5.436;2023-05-07T05:25:02;27.05;;;16.90;;
74044;SDS011;62389;51.412;5.436;2023-05-07T05:27:28;26.02;;;16.45;;
74044;SDS011;62389;51.412;5.436;2023-05-07T05:29:53;25.13;;;16.95;;
74044;SDS011;62389;51.412;5.436;2023-05-07T05:32:19;26.50;;;17.88;;
74044;SDS011;62389;51.412;5.436;2023-05-07T05:34:44;24.90;;;17.27;;
74044;SDS011;62389;51.412;5.436;2023-05-07T05:37:10;25.15;;;16.23;;
74044;SDS011;62389;51.412;5.436;2023-05-07T05:39:35;26.02;;;16.67;;
74044;SDS011;62389;51.412;5.436;2023-05-07T05:42:01;26.08;;;16.92;;
74044;SDS011;62389;51.412;5.436;2023-05-07T05:44:27;28.52;;;18.02;;
74044;SDS011;62389;51.412;5.436;2023-05-07T05:46:52;25.63;;;17.20;;
74044;SDS011;62389;51.412;5.436;2023-05-07T05:49:20;29.48;;;17.92;;
74044;SDS011;62389;51.412;5.436;2023-05-07T05:51:45;25.50;;;17.02;;
74044;SDS011;62389;51.412;5.436;2023-05-07T05:54:11;27.00;;;17.35;;
74044;SDS011;62389;51.412;5.436;2023-05-07T05:56:36;26.83;;;17.38;;
74044;SDS011;62389;51.412;5.436;2023-05-07T05:59:02;26.67;;;16.88;;
74044;SDS011;62389;51.412;5.436;2023-05-07T06:01:27;24.08;;;16.52;;
74044;SDS011;62389;51.412;5.436;2023-05-07T06:03:53;26.27;;;16.30;;
74044;SDS011;62389;51.412;5.436;2023-05-07T06:06:18;25.50;;;17.05;;
74044;SDS011;62389;51.412;5.436;2023-05-07T06:08:44;26.20;;;16.48;;
74044;SDS011;62389;51.412;5.436;2023-05-07T06:11:09;24.35;;;16.83;;
74044;SDS011;62389;51.412;5.436;2023-05-07T06:13:35;24.02;;;16.05;;
74044;SDS011;62389;51.412;5.436;2023-05-07T06:16:00;24.27;;;15.52;;
74044;SDS011;62389;51.412;5.436;2023-05-07T06:18:25;21.15;;;14.88;;
74044;SDS011;62389;51.412;5.436;2023-05-07T06:20:51;24.92;;;16.70;;
74044;SDS011;62389;51.412;5.436;2023-05-07T06:23:17;23.85;;;15.50;;
74044;SDS011;62389;51.412;5.436;2023-05-07T06:25:45;24.95;;;15.45;;
74044;SDS011;62389;51.412;5.436;2023-05-07T06:28:13;22.65;;;14.77;;
74044;SDS011;62389;51.412;5.436;2023-05-07T06:30:38;22.10;;;14.75;;
74044;SDS011;62389;51.412;5.436;2023-05-07T06:33:05;23.70;;;14.90;;
74044;SDS011;62389;51.412;5.436;2023-05-07T06:35:30;20.55;;;14.35;;
74044;SDS011;62389;51.412;5.436;2023-05-07T06:37:55;20.70;;;14.93;;
74044;SDS011;62389;51.412;5.436;2023-05-07T06:40:21;21.98;;;14.23;;
74044;SDS011;62389;51.412;5.436;2023-05-07T06:42:46;21.05;;;14.43;;
74044;SDS011;62389;51.412;5.436;2023-05-07T06:45:11;21.73;;;14.15;;
74044;SDS011;62389;51.412;5.436;2023-05-07T06:47:37;23.73;;;15.60;;
74044;SDS011;62389;51.412;5.436;2023-05-07T06:50:02;23.85;;;14.50;;
74044;SDS011;62389;51.412;5.436;2023-05-07T06:52:28;20.52;;;15.07;;
74044;SDS011;62389;51.412;5.436;2023-05-07T06:54:53;23.15;;;15.27;;
74044;SDS011;62389;51.412;5.436;2023-05-07T06:57:18;21.23;;;14.10;;
74044;SDS011;62389;51.412;5.436;2023-05-07T06:59:44;20.85;;;14.02;;
74044;SDS011;62389;51.412;5.436;2023-05-07T07:02:09;21.52;;;14.95;;
74044;SDS011;62389;51.412;5.436;2023-05-07T07:04:34;22.23;;;15.32;;
74044;SDS011;62389;51.412;5.436;2023-05-07T07:07:00;22.65;;;14.77;;
74044;SDS011;62389;51.412;5.436;2023-05-07T07:09:25;23.15;;;15.18;;
74044;SDS011;62389;51.412;5.436;2023-05-07T07:11:50;21.08;;;13.88;;
74044;SDS011;62389;51.412;5.436;2023-05-07T07:14:16;22.48;;;13.73;;
74044;SDS011;62389;51.412;5.436;2023-05-07T07:16:41;23.10;;;15.57;;
74044;SDS011;62389;51.412;5.436;2023-05-07T07:19:06;21.63;;;14.07;;
74044;SDS011;62389;51.412;5.436;2023-05-07T07:21:33;20.55;;;13.90;;
74044;SDS011;62389;51.412;5.436;2023-05-07T07:23:58;21.55;;;14.88;;
74044;SDS011;62389;51.412;5.436;2023-05-07T07:26:23;22.10;;;14.60;;
74044;SDS011;62389;51.412;5.436;2023-05-07T07:28:49;22.45;;;14.52;;
74044;SDS011;62389;51.412;5.436;2023-05-07T07:31:14;20.33;;;14.07;;
74044;SDS011;62389;51.412;5.436;2023-05-07T07:33:40;21.92;;;14.70;;
74044;SDS011;62389;51.412;5.436;2023-05-07T07:36:05;22.40;;;14.75;;
74044;SDS011;62389;51.412;5.436;2023-05-07T07:38:32;22.30;;;15.23;;
74044;SDS011;62389;51.412;5.436;2023-05-07T07:40:57;20.15;;;13.82;;
74044;SDS011;62389;51.412;5.436;2023-05-07T07:43:23;21.80;;;13.88;;
74044;SDS011;62389;51.412;5.436;2023-05-07T07:45:48;22.20;;;13.77;;
74044;SDS011;62389;51.412;5.436;2023-05-07T07:48:14;19.35;;;13.60;;
74044;SDS011;62389;51.412;5.436;2023-05-07T07:50:39;23.05;;;14.15;;
74044;SDS011;62389;51.412;5.436;2023-05-07T07:53:04;19.63;;;13.02;;
74044;SDS011;62389;51.412;5.436;2023-05-07T07:55:30;20.45;;;13.43;;
74044;SDS011;62389;51.412;5.436;2023-05-07T07:57:56;19.33;;;13.52;;
74044;SDS011;62389;51.412;5.436;2023-05-07T08:00:21;20.83;;;13.52;;
74044;SDS011;62389;51.412;5.436;2023-05-07T08:02:47;21.83;;;13.90;;
74044;SDS011;62389;51.412;5.436;2023-05-07T08:05:12;22.33;;;13.52;;
74044;SDS011;62389;51.412;5.436;2023-05-07T08:07:38;19.42;;;14.13;;
74044;SDS011;62389;51.412;5.436;2023-05-07T08:10:03;16.25;;;12.45;;
74044;SDS011;62389;51.412;5.436;2023-05-07T08:12:29;18.50;;;13.30;;
74044;SDS011;62389;51.412;5.436;2023-05-07T08:14:54;18.52;;;13.60;;
74044;SDS011;62389;51.412;5.436;2023-05-07T08:17:20;18.75;;;12.98;;
74044;SDS011;62389;51.412;5.436;2023-05-07T08:19:47;18.48;;;13.05;;
74044;SDS011;62389;51.412;5.436;2023-05-07T08:22:13;17.08;;;12.00;;
74044;SDS011;62389;51.412;5.436;2023-05-07T08:24:39;17.85;;;12.73;;
74044;SDS011;62389;51.412;5.436;2023-05-07T08:27:04;17.02;;;12.43;;
74044;SDS011;62389;51.412;5.436;2023-05-07T08:29:30;15.23;;;11.68;;
74044;SDS011;62389;51.412;5.436;2023-05-07T08:31:55;18.73;;;12.02;;
74044;SDS011;62389;51.412;5.436;2023-05-07T08:34:21;16.95;;;12.15;;
74044;SDS011;62389;51.412;5.436;2023-05-07T08:39:13;17.02;;;11.52;;
74044;SDS011;62389;51.412;5.436;2023-05-07T08:41:41;20.70;;;11.98;;
74044;SDS011;62389;51.412;5.436;2023-05-07T08:44:11;16.35;;;11.63;;
74044;SDS011;62389;51.412;5.436;2023-05-07T08:46:39;16.83;;;11.38;;
74044;SDS011;62389;51.412;5.436;2023-05-07T08:49:04;16.02;;;11.68;;
74044;SDS011;62389;51.412;5.436;2023-05-07T08:51:30;16.20;;;11.70;;
74044;SDS011;62389;51.412;5.436;2023-05-07T08:53:56;18.48;;;12.23;;
74044;SDS011;62389;51.412;5.436;2023-05-07T08:56:21;17.25;;;12.23;;
74044;SDS011;62389;51.412;5.436;2023-05-07T08:58:47;16.77;;;12.07;;
74044;SDS011;62389;51.412;5.436;2023-05-07T09:01:13;19.73;;;13.45;;
74044;SDS011;62389;51.412;5.436;2023-05-07T09:03:40;18.30;;;12.65;;
74044;SDS011;62389;51.412;5.436;2023-05-07T09:06:05;19.67;;;12.05;;
74044;SDS011;62389;51.412;5.436;2023-05-07T09:08:32;16.05;;;11.38;;
74044;SDS011;62389;51.412;5.436;2023-05-07T09:10:59;16.02;;;11.15;;
74044;SDS011;62389;51.412;5.436;2023-05-07T09:13:25;12.98;;;10.60;;
74044;SDS011;62389;51.412;5.436;2023-05-07T09:15:52;14.07;;;10.80;;
74044;SDS011;62389;51.412;5.436;2023-05-07T09:18:17;15.60;;;11.43;;
74044;SDS011;62389;51.412;5.436;2023-05-07T09:20:42;16.77;;;11.23;;
74044;SDS011;62389;51.412;5.436;2023-05-07T09:23:08;13.93;;;11.23;;
74044;SDS011;62389;51.412;5.436;2023-05-07T09:25:34;15.95;;;11.98;;
74044;SDS011;62389;51.412;5.436;2023-05-07T09:28:01;12.85;;;10.23;;
74044;SDS011;62389;51.412;5.436;2023-05-07T09:30:31;14.73;;;10.55;;
74044;SDS011;62389;51.412;5.436;2023-05-07T09:33:00;14.60;;;10.57;;
74044;SDS011;62389;51.412;5.436;2023-05-07T09:35:27;13.65;;;9.98;;
74044;SDS011;62389;51.412;5.436;2023-05-07T09:37:53;15.45;;;10.88;;
74044;SDS011;62389;51.412;5.436;2023-05-07T09:40:21;13.40;;;9.82;;
74044;SDS011;62389;51.412;5.436;2023-05-07T09:42:47;14.25;;;10.15;;
74044;SDS011;62389;51.412;5.436;2023-05-07T09:45:14;13.68;;;9.90;;
74044;SDS011;62389;51.412;5.436;2023-05-07T09:47:40;14.30;;;9.02;;
74044;SDS011;62389;51.412;5.436;2023-05-07T09:50:09;13.15;;;9.05;;
74044;SDS011;62389;51.412;5.436;2023-05-07T09:52:38;14.05;;;9.48;;
74044;SDS011;62389;51.412;5.436;2023-05-07T09:55:05;11.77;;;9.05;;
74044;SDS011;62389;51.412;5.436;2023-05-07T09:57:32;11.77;;;8.40;;
74044;SDS011;62389;51.412;5.436;2023-05-07T09:59:59;10.60;;;7.95;;
74044;SDS011;62389;51.412;5.436;2023-05-07T10:02:29;12.55;;;8.77;;
74044;SDS011;62389;51.412;5.436;2023-05-07T10:04:56;11.80;;;7.88;;
74044;SDS011;62389;51.412;5.436;2023-05-07T10:07:25;10.27;;;7.47;;
74044;SDS011;62389;51.412;5.436;2023-05-07T10:09:51;10.68;;;7.20;;
74044;SDS011;62389;51.412;5.436;2023-05-07T10:12:17;12.35;;;8.27;;
74044;SDS011;62389;51.412;5.436;2023-05-07T10:14:45;11.18;;;8.18;;
74044;SDS011;62389;51.412;5.436;2023-05-07T10:17:13;9.80;;;7.75;;
74044;SDS011;62389;51.412;5.436;2023-05-07T10:19:41;10.45;;;7.72;;
74044;SDS011;62389;51.412;5.436;2023-05-07T10:22:09;10.65;;;7.82;;
74044;SDS011;62389;51.412;5.436;2023-05-07T10:24:36;10.60;;;7.43;;
74044;SDS011;62389;51.412;5.436;2023-05-07T10:27:03;11.65;;;8.40;;
74044;SDS011;62389;51.412;5.436;2023-05-07T10:34:40;11.88;;;8.70;;
74044;SDS011;62389;51.412;5.436;2023-05-07T10:37:10;9.60;;;7.20;;
74044;SDS011;62389;51.412;5.436;2023-05-07T10:39:37;12.35;;;8.18;;
74044;SDS011;62389;51.412;5.436;2023-05-07T10:42:09;10.30;;;8.23;;
74044;SDS011;62389;51.412;5.436;2023-05-07T10:44:36;12.90;;;7.82;;
74044;SDS011;62389;51.412;5.436;2023-05-07T10:47:09;10.30;;;7.50;;
74044;SDS011;62389;51.412;5.436;2023-05-07T10:54:44;9.90;;;7.90;;
74044;SDS011;62389;51.412;5.436;2023-05-07T11:05:26;12.52;;;8.15;;
74044;SDS011;62389;51.412;5.436;2023-05-07T11:07:54;10.77;;;7.65;;
74044;SDS011;62389;51.412;5.436;2023-05-07T11:10:23;11.98;;;7.65;;
74044;SDS011;62389;51.412;5.436;2023-05-07T11:16:21;11.95;;;9.32;;
74044;SDS011;62389;51.412;5.436;2023-05-07T11:18:49;12.75;;;8.95;;
74044;SDS011;62389;51.412;5.436;2023-05-07T11:24:09;11.52;;;8.10;;
74044;SDS011;62389;51.412;5.436;2023-05-07T11:26:45;10.10;;;8.05;;
74044;SDS011;62389;51.412;5.436;2023-05-07T11:29:13;13.43;;;8.70;;
74044;SDS011;62389;51.412;5.436;2023-05-07T11:31:40;11.25;;;8.35;;
74044;SDS011;62389;51.412;5.436;2023-05-07T11:34:06;11.13;;;8.05;;
74044;SDS011;62389;51.412;5.436;2023-05-07T11:38:58;15.05;;;8.07;;
74044;SDS011;62389;51.412;5.436;2023-05-07T11:41:33;11.55;;;8.38;;
74044;SDS011;62389;51.412;5.436;2023-05-07T11:44:00;13.32;;;8.35;;
74044;SDS011;62389;51.412;5.436;2023-05-07T11:46:26;9.80;;;7.97;;
74044;SDS011;62389;51.412;5.436;2023-05-07T11:48:52;10.88;;;8.48;;
74044;SDS011;62389;51.412;5.436;2023-05-07T11:51:19;10.68;;;7.43;;
74044;SDS011;62389;51.412;5.436;2023-05-07T11:53:45;12.43;;;8.00;;
74044;SDS011;62389;51.412;5.436;2023-05-07T11:56:12;10.85;;;7.72;;
74044;SDS011;62389;51.412;5.436;2023-05-07T11:58:39;8.60;;;5.80;;
74044;SDS011;62389;51.412;5.436;2023-05-07T12:01:07;12.05;;;6.30;;
74044;SDS011;62389;51.412;5.436;2023-05-07T12:03:34;8.65;;;6.65;;
74044;SDS011;62389;51.412;5.436;2023-05-07T12:06:02;10.30;;;8.05;;
74044;SDS011;62389;51.412;5.436;2023-05-07T12:08:27;12.80;;;7.95;;
74044;SDS011;62389;51.412;5.436;2023-05-07T12:10:53;10.50;;;7.28;;
74044;SDS011;62389;51.412;5.436;2023-05-07T12:13:19;13.27;;;7.43;;
74044;SDS011;62389;51.412;5.436;2023-05-07T12:15:50;12.50;;;7.60;;
74044;SDS011;62389;51.412;5.436;2023-05-07T12:18:16;13.00;;;8.20;;
74044;SDS011;62389;51.412;5.436;2023-05-07T12:20:42;9.95;;;7.38;;
74044;SDS011;62389;51.412;5.436;2023-05-07T12:23:08;15.75;;;6.00;;
74044;SDS011;62389;51.412;5.436;2023-05-07T12:25:38;13.75;;;6.47;;
74044;SDS011;62389;51.412;5.436;2023-05-07T12:28:05;9.05;;;5.07;;
74044;SDS011;62389;51.412;5.436;2023-05-07T12:30:37;30.38;;;6.47;;
74044;SDS011;62389;51.412;5.436;2023-05-07T12:33:04;11.32;;;4.70;;
74044;SDS011;62389;51.412;5.436;2023-05-07T12:35:35;12.07;;;5.05;;
74044;SDS011;62389;51.412;5.436;2023-05-07T12:38:04;11.73;;;4.70;;
74044;SDS011;62389;51.412;5.436;2023-05-07T12:43:03;7.53;;;4.13;;
74044;SDS011;62389;51.412;5.436;2023-05-07T12:45:29;10.18;;;3.95;;
74044;SDS011;62389;51.412;5.436;2023-05-07T12:47:54;6.53;;;3.40;;
74044;SDS011;62389;51.412;5.436;2023-05-07T12:50:19;6.43;;;3.58;;
74044;SDS011;62389;51.412;5.436;2023-05-07T12:52:47;9.07;;;3.95;;
74044;SDS011;62389;51.412;5.436;2023-05-07T12:55:16;8.30;;;4.50;;
74044;SDS011;62389;51.412;5.436;2023-05-07T12:57:42;5.32;;;3.92;;
74044;SDS011;62389;51.412;5.436;2023-05-07T13:00:11;6.55;;;3.67;;
74044;SDS011;62389;51.412;5.436;2023-05-07T13:02:40;6.65;;;4.00;;
74044;SDS011;62389;51.412;5.436;2023-05-07T13:05:09;6.97;;;3.85;;
74044;SDS011;62389;51.412;5.436;2023-05-07T13:07:34;7.78;;;4.55;;
74044;SDS011;62389;51.412;5.436;2023-05-07T13:10:01;6.55;;;3.78;;
74044;SDS011;62389;51.412;5.436;2023-05-07T13:12:27;7.53;;;4.28;;
74044;SDS011;62389;51.412;5.436;2023-05-07T13:14:52;6.90;;;4.43;;
74044;SDS011;62389;51.412;5.436;2023-05-07T13:17:18;8.10;;;4.20;;
74044;SDS011;62389;51.412;5.436;2023-05-07T13:19:43;5.85;;;3.95;;
74044;SDS011;62389;51.412;5.436;2023-05-07T13:22:09;6.60;;;3.00;;
74044;SDS011;62389;51.412;5.436;2023-05-07T13:24:34;3.08;;;2.45;;
74044;SDS011;62389;51.412;5.436;2023-05-07T13:27:00;3.28;;;2.17;;
74044;SDS011;62389;51.412;5.436;2023-05-07T13:29:25;3.20;;;2.10;;
74044;SDS011;62389;51.412;5.436;2023-05-07T13:31:55;7.43;;;3.85;;
74044;SDS011;62389;51.412;5.436;2023-05-07T13:34:22;6.20;;;3.83;;
74044;SDS011;62389;51.412;5.436;2023-05-07T13:36:47;6.07;;;2.92;;
74044;SDS011;62389;51.412;5.436;2023-05-07T13:39:12;9.32;;;3.63;;
74044;SDS011;62389;51.412;5.436;2023-05-07T13:41:38;5.53;;;3.00;;
74044;SDS011;62389;51.412;5.436;2023-05-07T13:44:03;4.10;;;2.30;;
74044;SDS011;62389;51.412;5.436;2023-05-07T13:46:29;3.78;;;2.03;;
74044;SDS011;62389;51.412;5.436;2023-05-07T13:48:55;4.75;;;2.00;;
74044;SDS011;62389;51.412;5.436;2023-05-07T13:51:20;4.47;;;2.10;;
74044;SDS011;62389;51.412;5.436;2023-05-07T13:53:46;5.28;;;2.22;;
74044;SDS011;62389;51.412;5.436;2023-05-07T13:56:12;4.50;;;1.80;;
74044;SDS011;62389;51.412;5.436;2023-05-07T13:58:37;3.45;;;1.90;;
74044;SDS011;62389;51.412;5.436;2023-05-07T14:01:03;4.00;;;1.80;;
74044;SDS011;62389;51.412;5.436;2023-05-07T14:03:28;4.68;;;2.13;;
74044;SDS011;62389;51.412;5.436;2023-05-07T14:05:56;3.65;;;2.53;;
74044;SDS011;62389;51.412;5.436;2023-05-07T14:08:22;3.65;;;2.60;;
74044;SDS011;62389;51.412;5.436;2023-05-07T14:10:48;4.90;;;3.05;;
74044;SDS011;62389;51.412;5.436;2023-05-07T14:13:13;4.53;;;3.22;;
74044;SDS011;62389;51.412;5.436;2023-05-07T14:15:38;6.15;;;3.42;;
74044;SDS011;62389;51.412;5.436;2023-05-07T14:18:05;6.57;;;4.60;;
74044;SDS011;62389;51.412;5.436;2023-05-07T14:20:30;7.05;;;4.03;;
74044;SDS011;62389;51.412;5.436;2023-05-07T14:22:56;9.00;;;4.30;;
74044;SDS011;62389;51.412;5.436;2023-05-07T14:25:21;6.90;;;4.68;;
74044;SDS011;62389;51.412;5.436;2023-05-07T14:27:46;9.80;;;6.03;;
74044;SDS011;62389;51.412;5.436;2023-05-07T14:30:12;8.05;;;6.38;;
74044;SDS011;62389;51.412;5.436;2023-05-07T14:32:37;11.13;;;8.43;;
74044;SDS011;62389;51.412;5.436;2023-05-07T14:35:03;11.05;;;8.02;;
74044;SDS011;62389;51.412;5.436;2023-05-07T14:37:29;11.32;;;8.05;;
74044;SDS011;62389;51.412;5.436;2023-05-07T14:39:54;11.77;;;8.32;;
74044;SDS011;62389;51.412;5.436;2023-05-07T14:42:20;9.00;;;5.93;;
74044;SDS011;62389;51.412;5.436;2023-05-07T14:44:45;9.27;;;5.60;;
74044;SDS011;62389;51.412;5.436;2023-05-07T14:47:11;8.40;;;5.55;;
74044;SDS011;62389;51.412;5.436;2023-05-07T14:49:37;8.90;;;5.72;;
74044;SDS011;62389;51.412;5.436;2023-05-07T14:52:03;10.13;;;5.60;;
74044;SDS011;62389;51.412;5.436;2023-05-07T14:54:30;7.70;;;5.68;;
74044;SDS011;62389;51.412;5.436;2023-05-07T14:56:59;9.30;;;6.00;;